Observations for CULDROSE NAVY, United Kingdom (EGDR)

EGDR 221415Z 02012KT 9999 FEW028 13/06 Q1039 BLU NOSIG  
EGDR 221350Z 03013KT 9999 FEW028 13/06 Q1039 BLU NOSIG  
EGDR 221320Z 03013KT 9999 FEW030 14/06 Q1039 BLU NOSIG  
EGDR 221250Z 03010G20KT 9999 SCT030 13/06 Q1039 BLU NOSIG   
EGDR 221221Z 02013KT 9999 FEW028 14/06 Q1039 BLU NOSIG  
EGDR 221150Z 04012KT 9999 SCT028 13/06 Q1039 BLU NOSIG  
EGDR 221120Z 04013KT 9999 SCT026 13/06 Q1039 BLU NOSIG  
EGDR 221050Z 03015G25KT 9999 FEW024 13/06 Q1039 BLU NOSIG   
EGDR 221024Z 04017G28KT 9999 FEW024 12/05 Q1039 BLU NOSIG   
EGDR 220950Z 04015KT 9999 FEW026 12/06 Q1039 BLU NOSIG  
EGDR 220924Z 04014KT 9999 FEW025 11/06 Q1039 BLU NOSIG  
EGDR 220850Z 04012KT 9999 FEW026 11/06 Q1039 BLU NOSIG  
EGDR 220827Z 04010KT 9999 FEW026 10/06 Q1038 BLU NOSIG  
EGDR 220750Z 04009KT 9999 FEW026 09/06 Q1038 BLU NOSIG  
EGDR 220728Z 05010KT 9999 FEW026 08/06 Q1037 BLU NOSIG  
EGDR 220650Z 05010KT 9999 FEW028 08/06 Q1037 BLU NOSIG  
EGDR 220627Z 04009KT 9999 FEW028 08/05 Q1037 BLU NOSIG  
EGDR 220550Z 04010KT 9999 FEW026 09/06 Q1036 BLU NOSIG  
EGDR 220528Z 03011KT 9999 FEW026 09/06 Q1036 BLU NOSIG  
EGDR 220450Z 03010KT 9999 FEW026 09/06 Q1035 BLU
EGDR 220350Z 03011KT 9999 FEW024 SCT230 10/07 Q1035 BLU 
EGDR 220250Z 03014KT CAVOK 11/08 Q1034 BLU  
EGDR 220150Z 02014G24KT CAVOK 12/08 Q1034 BLU   
EGDR 220050Z AUTO 02019KT 9999 // FEW080/// BKN220/// 12/08 Q1034   
EGDR 212350Z AUTO 03015KT 9999 // SCT027/// SCT070/// BKN240/// 12/08 Q1033 
EGDR 212250Z AUTO 02021KT 9999 // FEW070/// BKN200/// 12/09 Q1032   
EGDR 212150Z AUTO 02021KT 9999 // FEW013/// 12/09 Q1032 
EGDR 212050Z AUTO 02018KT 9999 // SCT004/// BKN019/// BKN039/// 14/12 Q1031 
EGDR 211950Z AUTO 36012KT 9999 // OVC003/// 14/13 Q1030 
EGDR 211850Z AUTO 36008KT 8000 // OVC002/// 13/12 Q1030 
EGDR 211750Z AUTO 36009KT 9999 // BKN005/// BKN014/// 12/11 Q1029   
EGDR 211650Z AUTO 36008KT 9999 // BKN011/// 13/11 Q1029 
EGDR 211550Z AUTO 01009KT 9999 // NCD 14/11 Q1028   
EGDR 211450Z AUTO 34009KT 9999 // FEW013/// 14/10 Q1028 
EGDR 211350Z AUTO 35008KT 9999 // NCD 16/11 Q1028